Time;durP1;ratioP1;P1;durP2;ratioP2;P2;SDS_P1;SDS_P2;PMS_P1;PMS_P2;Temp;Humidity;BMP_temperature;BMP_pressure;BME280_temperature;BME280_humidity;BME280_pressure;Samples;Min_cycle;Max_cycle;Signal;HPM_P1;HPM_P2
2024/01/10 00:01:37;;;;;;;12.10;7.10;;;-2.90;99.90;;;-3.35;64.15;101696.34;4836057;28;24783;-66
2024/01/10 00:03:59;;;;;;;11.32;7.07;;;-2.90;99.90;;;-3.32;64.61;101689.53;4816095;28;24524;-65
2024/01/10 00:06:23;;;;;;;11.55;7.75;;;-2.90;99.90;;;-3.33;64.41;101692.97;4836179;28;24433;-65
2024/01/10 00:08:45;;;;;;;12.33;6.90;;;-2.80;99.90;;;-3.41;64.07;101692.06;4827894;28;24540;-66
2024/01/10 00:11:07;;;;;;;11.90;7.30;;;-2.90;99.90;;;-3.44;64.69;101686.97;4810866;28;24488;-66
2024/01/10 00:13:32;;;;;;;11.57;7.22;;;-3.00;99.90;;;-3.50;65.07;101686.97;4829265;28;24468;-65
2024/01/10 00:15:55;;;;;;;11.80;6.60;;;-3.00;99.90;;;-3.53;65.32;101681.84;4819066;28;24515;-66
2024/01/10 00:18:17;;;;;;;11.88;7.60;;;-3.00;99.90;;;-3.53;65.08;101686.94;4818777;28;24534;-65
2024/01/10 00:20:39;;;;;;;14.05;6.30;;;-3.00;99.90;;;-3.53;64.85;101686.94;4831260;28;24443;-65
2024/01/10 00:23:01;;;;;;;8.68;5.63;;;-3.10;99.90;;;-3.52;64.85;101678.47;4829273;28;25021;-65
2024/01/10 00:25:23;;;;;;;11.65;6.70;;;-3.10;99.90;;;-3.57;65.27;101679.28;4837449;28;25036;-64
2024/01/10 00:27:45;;;;;;;11.77;6.60;;;-3.10;99.90;;;-3.56;64.80;101671.66;4829930;28;24512;-66
2024/01/10 00:30:08;;;;;;;11.75;6.50;;;-3.10;99.90;;;-3.53;65.54;101671.66;4820573;28;24545;-65
2024/01/10 00:32:30;;;;;;;11.57;7.18;;;-3.10;99.90;;;-3.53;65.25;101670.78;4824675;28;24482;-64
2024/01/10 00:34:52;;;;;;;11.55;6.22;;;-3.10;99.90;;;-3.49;65.28;101680.19;4833388;28;24467;-66
2024/01/10 00:37:14;;;;;;;10.10;7.00;;;-3.00;99.90;;;-3.52;66.14;101678.47;4826613;28;24482;-66
2024/01/10 00:39:36;;;;;;;13.05;5.78;;;-3.00;99.90;;;-3.53;65.40;101679.28;4795900;28;20854;-66
2024/01/10 00:41:58;;;;;;;11.60;5.97;;;-3.00;99.90;;;-3.56;65.19;101671.66;4834665;28;24486;-66
2024/01/10 00:44:20;;;;;;;13.40;7.10;;;-3.10;99.90;;;-3.55;65.34;101664.84;4829368;28;24516;-66
2024/01/10 00:46:42;;;;;;;11.50;6.70;;;-3.10;99.90;;;-3.50;65.16;101663.16;4807801;28;24465;-66
2024/01/10 00:49:04;;;;;;;10.52;6.82;;;-3.10;99.90;;;-3.49;65.74;101668.25;4816969;28;24500;-65
2024/01/10 00:51:26;;;;;;;14.20;7.68;;;-3.00;99.90;;;-3.43;65.12;101659.78;4817067;28;24529;-65
2024/01/10 00:53:47;;;;;;;11.38;7.07;;;-3.00;99.90;;;-3.51;65.21;101669.94;4806674;28;24540;-66
2024/01/10 00:56:09;;;;;;;11.27;6.22;;;-3.00;99.90;;;-3.60;65.37;101669.09;4804112;28;25248;-65
2024/01/10 00:58:31;;;;;;;10.67;6.10;;;-3.10;99.90;;;-3.58;65.93;101677.59;4808922;28;24535;-65
2024/01/10 01:00:53;;;;;;;10.98;6.18;;;-3.10;99.90;;;-3.54;66.46;101677.63;4816621;28;24444;-65
2024/01/10 01:03:15;;;;;;;11.52;6.68;;;-3.10;99.90;;;-3.56;65.81;101674.22;4809157;28;24496;-66
2024/01/10 01:05:37;;;;;;;10.05;6.60;;;-3.10;99.90;;;-3.50;65.92;101668.25;4814703;28;24451;-66
2024/01/10 01:08:00;;;;;;;12.73;6.80;;;-3.10;99.90;;;-3.48;66.05;101669.97;4828660;28;25066;-65
2024/01/10 01:10:22;;;;;;;13.75;7.20;;;-3.10;99.90;;;-3.44;66.06;101668.25;4801174;28;24477;-66
2024/01/10 01:12:44;;;;;;;12.70;7.35;;;-3.10;99.90;;;-3.40;65.34;101663.16;4826382;28;25367;-66
2024/01/10 01:15:07;;;;;;;13.57;7.28;;;-3.00;99.90;;;-3.35;65.81;101670.81;4822823;28;24506;-65
2024/01/10 01:17:29;;;;;;;13.27;7.18;;;-2.90;99.90;;;-3.42;65.93;101664.88;4822872;28;24876;-65
2024/01/10 01:19:51;;;;;;;12.02;7.10;;;-2.90;99.90;;;-3.47;66.25;101661.44;4831626;28;24436;-65
2024/01/10 01:22:13;;;;;;;10.20;6.28;;;-3.00;99.90;;;-3.48;66.23;101664.88;4828617;28;24444;-63
2024/01/10 01:24:35;;;;;;;12.57;7.35;;;-3.00;99.90;;;-3.49;66.30;101660.59;4833902;28;24428;-65
2024/01/10 01:26:57;;;;;;;9.23;6.22;;;-3.00;99.90;;;-3.46;66.29;101660.63;4769756;28;1778144;-65
2024/01/10 01:29:20;;;;;;;12.07;6.60;;;-3.00;99.90;;;-3.49;65.52;101664.88;4832362;28;24838;-65
2024/01/10 01:31:42;;;;;;;9.90;6.07;;;-3.00;99.90;;;-3.43;65.94;101667.44;4810667;28;24823;-65
2024/01/10 01:34:04;;;;;;;11.20;5.78;;;-3.00;99.90;;;-3.41;65.80;101661.44;4836335;28;24826;-66
2024/01/10 01:36:26;;;;;;;10.65;6.10;;;-3.00;99.90;;;-3.40;66.08;101668.28;4832408;28;24428;-66
2024/01/10 01:38:48;;;;;;;11.13;6.70;;;-3.00;99.90;;;-3.37;66.54;101663.19;4821631;28;24571;-65
2024/01/10 01:41:10;;;;;;;13.00;7.00;;;-3.00;99.90;;;-3.38;66.49;101669.13;4809796;28;24464;-66
2024/01/10 01:43:32;;;;;;;9.60;6.22;;;-3.00;99.90;;;-3.30;66.09;101674.25;4832510;28;24875;-66
2024/01/10 01:45:56;;;;;;;11.73;6.70;;;-2.90;99.90;;;-3.35;65.90;101666.59;4813100;28;24480;-66
2024/01/10 01:48:19;;;;;;;12.55;7.40;;;-2.90;99.90;;;-3.32;66.49;101671.69;4802197;28;24583;-66
2024/01/10 01:50:42;;;;;;;14.80;7.00;;;-2.90;99.90;;;-3.28;65.92;101662.34;4830237;28;26371;-63
2024/01/10 01:53:04;;;;;;;13.68;7.60;;;-2.80;99.90;;;-3.29;65.42;101661.47;4820634;28;24820;-65
2024/01/10 01:55:26;;;;;;;12.90;7.27;;;-2.90;99.90;;;-3.24;65.66;101664.03;4810761;28;25103;-64
2024/01/10 01:57:48;;;;;;;14.68;7.30;;;-2.90;99.90;;;-3.21;65.73;101667.44;4834150;28;25036;-64
2024/01/10 02:00:10;;;;;;;14.45;7.95;;;-2.80;99.90;;;-3.21;65.07;101666.56;4822139;28;24570;-63
2024/01/10 02:02:34;;;;;;;11.88;7.13;;;-2.80;99.90;;;-3.17;65.02;101666.56;4828254;28;24560;-63
2024/01/10 02:04:57;;;;;;;13.57;7.38;;;-2.80;99.90;;;-3.23;65.13;101675.94;4817775;28;24478;-65
2024/01/10 02:07:19;;;;;;;14.05;7.07;;;-2.80;99.90;;;-3.24;65.19;101669.97;4810581;28;24444;-65
2024/01/10 02:09:41;;;;;;;12.30;6.70;;;-2.80;99.90;;;-3.23;65.28;101665.72;4824825;28;24605;-65
2024/01/10 02:12:04;;;;;;;13.73;8.40;;;-2.80;99.90;;;-3.19;64.62;101663.19;4814133;28;24453;-65
2024/01/10 02:14:26;;;;;;;14.80;8.70;;;-2.80;99.90;;;-3.17;64.97;101664.03;4816692;28;24516;-65
2024/01/10 02:16:48;;;;;;;13.73;7.82;;;-2.70;99.90;;;-3.17;64.47;101665.72;4834395;28;24439;-65
2024/01/10 02:19:22;;;;;;;15.45;8.20;;;-2.70;99.90;;;-3.20;64.21;101666.59;4816784;28;24449;-65
2024/01/10 02:21:44;;;;;;;12.30;6.82;;;-2.80;99.90;;;-3.20;64.33;101671.69;4827845;28;24433;-64
2024/01/10 02:24:05;;;;;;;12.52;7.15;;;-2.80;99.90;;;-3.20;64.37;101661.50;4802854;28;24563;-65
2024/01/10 02:26:28;;;;;;;14.07;7.75;;;-2.80;99.90;;;-3.15;64.63;101664.88;4810604;28;24815;-63
2024/01/10 02:28:50;;;;;;;13.75;7.18;;;-2.70;99.90;;;-3.08;64.49;101662.31;4816753;28;25143;-65
2024/01/10 02:31:12;;;;;;;13.88;7.75;;;-2.70;99.90;;;-3.10;64.42;101656.38;4828423;28;24452;-65
2024/01/10 02:33:34;;;;;;;16.15;8.23;;;-2.70;99.90;;;-3.08;63.40;101650.41;4830456;28;24850;-65
2024/01/10 02:35:56;;;;;;;15.15;7.88;;;-2.70;99.90;;;-3.08;64.09;101652.09;4835917;28;24799;-64
2024/01/10 02:38:21;;;;;;;14.13;7.43;;;-2.70;99.90;;;-3.10;63.38;101654.66;4833093;28;24519;-65
2024/01/10 02:40:43;;;;;;;14.38;7.85;;;-2.70;99.90;;;-3.11;64.20;101657.22;4832200;28;24544;-65
2024/01/10 02:43:06;;;;;;;14.50;7.53;;;-2.80;99.90;;;-3.07;63.69;101646.16;4831356;28;24550;-65
2024/01/10 02:45:28;;;;;;;12.98;7.43;;;-2.70;99.90;;;-3.02;63.88;101647.84;4834633;28;24483;-65
2024/01/10 02:47:50;;;;;;;13.55;7.07;;;-2.70;99.90;;;-3.04;63.35;101638.47;4820708;28;24894;-65
2024/01/10 02:50:12;;;;;;;13.30;7.60;;;-2.60;99.90;;;-3.08;63.64;101636.78;4833673;28;24424;-65
2024/01/10 02:52:35;;;;;;;14.65;7.80;;;-2.70;99.90;;;-3.04;64.54;101628.28;4816227;28;24854;-65
2024/01/10 02:54:56;;;;;;;14.07;7.13;;;-2.60;99.90;;;-3.06;64.04;101627.44;4834092;28;25066;-64
2024/01/10 02:57:18;;;;;;;13.40;7.63;;;-2.60;99.90;;;-3.00;63.85;101632.56;4803330;28;24440;-65
2024/01/10 02:59:40;;;;;;;11.60;6.68;;;-2.60;99.90;;;-3.00;63.92;101624.91;4833157;28;24977;-66
2024/01/10 03:02:02;;;;;;;14.15;7.65;;;-2.60;99.90;;;-3.05;63.90;101622.34;4804426;28;24535;-67
2024/01/10 03:04:24;;;;;;;14.70;8.32;;;-2.60;99.90;;;-3.05;64.47;101619.78;4815261;28;24864;-65
2024/01/10 03:06:46;;;;;;;12.27;6.85;;;-2.60;99.90;;;-3.08;63.90;101622.34;4812817;28;24716;-65
2024/01/10 03:09:08;;;;;;;13.32;7.70;;;-2.60;99.90;;;-3.14;64.77;101622.34;4817541;28;24990;-64
2024/01/10 03:11:31;;;;;;;15.20;8.95;;;-2.70;99.90;;;-3.22;64.78;101617.25;4826009;28;24552;-65
2024/01/10 03:14:03;;;;;;;16.42;8.80;;;-2.70;99.90;;;-3.19;64.92;101617.22;4822352;28;24472;-65
2024/01/10 03:16:25;;;;;;;15.63;9.33;;;-2.70;99.90;;;-3.18;65.25;101612.97;4815993;28;24626;-65
2024/01/10 03:18:47;;;;;;;14.85;8.90;;;-2.70;99.90;;;-3.19;65.86;101607.03;4837672;28;24475;-65
2024/01/10 03:21:09;;;;;;;14.73;9.20;;;-2.80;99.90;;;-3.27;66.44;101607.88;4821223;28;24464;-65
2024/01/10 03:23:31;;;;;;;14.93;8.50;;;-2.80;99.90;;;-3.27;67.32;101612.97;4812796;28;24444;-67
2024/01/10 03:25:53;;;;;;;15.82;9.48;;;-2.80;99.90;;;-3.29;67.11;101605.34;4826364;28;24483;-65
2024/01/10 03:28:17;;;;;;;15.23;10.02;;;-2.90;99.90;;;-3.27;66.88;101602.78;4836219;28;24433;-65
2024/01/10 03:30:39;;;;;;;16.20;9.38;;;-2.80;99.90;;;-3.24;66.27;101602.78;4820867;28;24449;-65
2024/01/10 03:33:01;;;;;;;16.70;8.53;;;-2.80;99.90;;;-3.20;67.10;101605.34;4820234;28;24464;-65
2024/01/10 03:35:23;;;;;;;13.40;7.90;;;-2.80;99.90;;;-3.23;66.67;101600.22;4828764;28;24440;-65
2024/01/10 03:37:45;;;;;;;17.15;9.23;;;-2.80;99.90;;;-3.16;67.47;101595.97;4837400;28;25254;-65
2024/01/10 03:40:08;;;;;;;14.05;8.18;;;-2.80;99.90;;;-3.11;66.81;101595.97;4829511;28;24448;-65
2024/01/10 03:42:30;;;;;;;15.43;7.65;;;-2.70;99.90;;;-3.09;66.65;101591.72;4834569;28;24433;-66
2024/01/10 03:44:52;;;;;;;15.25;7.82;;;-2.70;99.90;;;-3.04;66.83;101595.09;4810426;28;24467;-64
2024/01/10 03:47:14;;;;;;;15.27;7.60;;;-2.70;99.90;;;-3.01;66.63;101595.09;4832106;28;24432;-66
2024/01/10 03:49:36;;;;;;;15.98;8.27;;;-2.60;99.90;;;-2.96;66.19;101598.50;4831803;28;24429;-65
2024/01/10 03:51:58;;;;;;;16.83;8.67;;;-2.60;99.90;;;-2.95;64.99;101600.19;4832784;28;24456;-65
2024/01/10 03:54:20;;;;;;;15.00;8.80;;;-2.60;99.90;;;-2.88;65.72;101596.78;4837701;28;24519;-65
2024/01/10 03:56:41;;;;;;;18.13;9.40;;;-2.50;99.90;;;-2.95;65.85;101608.69;4830705;28;24448;-65
2024/01/10 03:59:03;;;;;;;15.52;9.10;;;-2.50;99.90;;;-2.96;66.54;101603.59;4836777;28;24436;-65
2024/01/10 04:01:25;;;;;;;15.75;8.68;;;-2.50;99.90;;;-2.97;66.60;101604.44;4829635;28;24447;-65
2024/01/10 04:03:47;;;;;;;15.82;8.95;;;-2.60;99.90;;;-3.04;66.70;101606.16;4824591;28;24449;-65
2024/01/10 04:06:09;;;;;;;16.92;9.30;;;-2.60;99.90;;;-3.02;66.42;101601.91;4836261;28;24433;-65
2024/01/10 04:08:31;;;;;;;17.40;9.27;;;-2.60;99.90;;;-3.09;67.25;101607.03;4832670;28;24444;-64
2024/01/10 04:10:53;;;;;;;16.50;9.13;;;-2.70;99.90;;;-3.16;67.89;101603.63;4826007;28;24453;-65
2024/01/10 04:13:15;;;;;;;16.83;9.00;;;-2.70;99.90;;;-3.19;68.33;101601.06;4801734;28;24477;-65
2024/01/10 04:15:37;;;;;;;15.45;9.25;;;-2.80;99.90;;;-3.21;68.08;101608.72;4836361;28;24429;-65
2024/01/10 04:17:59;;;;;;;19.17;9.90;;;-2.80;99.90;;;-3.19;68.56;101616.38;4828494;28;24543;-65
2024/01/10 04:20:21;;;;;;;18.55;9.20;;;-2.70;99.90;;;-3.24;69.01;101607.88;4836921;28;24811;-65
2024/01/10 04:22:43;;;;;;;17.40;9.82;;;-2.80;99.90;;;-3.36;69.37;101618.06;4833429;28;25069;-66
2024/01/10 04:25:07;;;;;;;16.02;8.73;;;-2.90;99.90;;;-3.37;69.60;101611.28;4836153;28;24433;-64
2024/01/10 04:27:29;;;;;;;13.68;7.10;;;-2.90;99.90;;;-3.37;69.06;101621.50;4829038;28;24871;-65
2024/01/10 04:29:51;;;;;;;18.63;9.65;;;-2.90;99.90;;;-3.42;68.93;101621.50;4834552;28;24538;-65
2024/01/10 04:32:13;;;;;;;16.50;7.53;;;-2.90;99.90;;;-3.44;69.94;101617.22;4809734;28;25046;-65
2024/01/10 04:34:35;;;;;;;19.25;10.07;;;-3.00;99.90;;;-3.53;69.40;101607.88;4828356;28;24429;-65
2024/01/10 04:36:57;;;;;;;16.50;9.10;;;-3.00;99.90;;;-3.50;69.54;101605.34;4817920;28;25057;-64
2024/01/10 04:39:19;;;;;;;19.65;10.13;;;-3.10;99.90;;;-3.40;68.91;101613.81;4819184;28;24521;-66
2024/01/10 04:41:41;;;;;;;13.75;7.75;;;-3.00;99.90;;;-3.37;68.43;101609.59;4812383;28;24445;-65
2024/01/10 04:44:03;;;;;;;17.08;8.98;;;-3.00;99.90;;;-3.35;68.83;101605.34;4819151;28;24479;-65
2024/01/10 04:46:25;;;;;;;16.70;8.90;;;-2.90;99.90;;;-3.28;68.49;101612.13;4833274;28;25024;-65
2024/01/10 04:48:47;;;;;;;17.02;9.50;;;-2.90;99.90;;;-3.24;68.62;101618.94;4836175;28;24432;-66
2024/01/10 04:51:09;;;;;;;14.85;8.88;;;-2.90;99.90;;;-3.28;68.90;101608.75;4829080;28;24455;-64
2024/01/10 04:53:31;;;;;;;18.70;8.80;;;-2.90;99.90;;;-3.24;68.23;101613.00;4797183;28;24454;-65
2024/01/10 04:55:53;;;;;;;16.40;9.70;;;-2.90;99.90;;;-3.21;67.94;101616.38;4826596;28;24456;-65
2024/01/10 04:58:15;;;;;;;20.50;10.05;;;-2.80;99.90;;;-3.16;67.90;101616.38;4822803;28;24456;-66
2024/01/10 05:00:37;;;;;;;20.15;10.70;;;-2.70;99.90;;;-3.14;67.44;101609.56;4800085;28;24572;-66
2024/01/10 05:02:59;;;;;;;17.98;9.70;;;-2.70;99.90;;;-3.13;67.81;101606.16;4835275;28;24488;-66
2024/01/10 05:05:23;;;;;;;16.73;9.05;;;-2.70;99.90;;;-3.15;68.02;101605.31;4830415;28;24432;-66
2024/01/10 05:07:45;;;;;;;19.02;9.70;;;-2.70;99.90;;;-3.17;67.29;101610.41;4826187;28;24440;-65
2024/01/10 05:10:08;;;;;;;17.77;9.82;;;-2.70;99.90;;;-3.17;67.95;101614.66;4829833;28;24506;-61
2024/01/10 05:12:29;;;;;;;19.35;9.20;;;-2.70;99.90;;;-3.18;67.61;101616.41;4812047;28;24906;-64
2024/01/10 05:14:52;;;;;;;17.52;9.77;;;-2.80;99.90;;;-3.20;68.41;101614.69;4835213;28;24479;-64
2024/01/10 05:17:14;;;;;;;17.40;9.48;;;-2.80;99.90;;;-3.33;68.04;101607.88;4812255;28;24425;-63
2024/01/10 05:19:36;;;;;;;16.48;9.90;;;-2.90;99.90;;;-3.33;67.83;101611.28;4809405;28;24884;-65
2024/01/10 05:21:58;;;;;;;18.47;9.80;;;-2.90;99.90;;;-3.33;67.93;101608.75;4822741;28;24899;-65
2024/01/10 05:24:24;;;;;;;20.90;11.13;;;-2.90;99.90;;;-3.32;69.16;101605.31;4813927;28;24447;-65
2024/01/10 05:26:46;;;;;;;19.50;10.60;;;-2.90;99.90;;;-3.37;69.41;101601.94;4799890;28;24451;-64
2024/01/10 05:29:08;;;;;;;16.20;8.98;;;-2.90;99.90;;;-3.32;69.26;101607.88;4831277;28;24864;-63
2024/01/10 05:31:30;;;;;;;22.25;10.50;;;-2.90;99.90;;;-3.32;69.18;101607.88;4829125;28;24539;-65
2024/01/10 05:33:53;;;;;;;18.20;10.35;;;-2.90;99.90;;;-3.34;69.64;101609.56;4802796;28;24511;-64
2024/01/10 05:36:15;;;;;;;20.02;10.05;;;-2.90;99.90;;;-3.31;69.54;101609.59;4831136;28;24524;-64
2024/01/10 05:38:37;;;;;;;17.70;8.95;;;-2.90;99.90;;;-3.36;70.29;101601.06;4813112;28;24440;-64
2024/01/10 05:40:59;;;;;;;19.53;9.83;;;-2.90;99.90;;;-3.31;69.95;101606.19;4819910;28;24532;-64
2024/01/10 05:43:21;;;;;;;17.30;9.63;;;-2.90;99.90;;;-3.26;69.62;101605.31;4819739;28;24850;-65
2024/01/10 05:45:43;;;;;;;17.27;9.48;;;-2.90;99.90;;;-3.18;69.15;101602.78;4817310;28;24435;-65
2024/01/10 05:48:06;;;;;;;17.10;8.90;;;-2.80;99.90;;;-3.23;69.28;101599.38;4805076;28;25091;-64
2024/01/10 05:50:28;;;;;;;16.10;8.52;;;-2.80;99.90;;;-3.23;69.10;101595.13;4817037;28;24452;-65
2024/01/10 05:52:51;;;;;;;16.55;8.70;;;-2.80;99.90;;;-3.27;69.83;101608.72;4807376;28;24551;-65
2024/01/10 05:55:13;;;;;;;17.63;8.80;;;-2.80;99.90;;;-3.33;69.66;101601.09;4829434;28;24449;-65
2024/01/10 05:57:37;;;;;;;17.45;10.00;;;-2.90;99.90;;;-3.32;70.41;101609.56;4817638;28;24879;-65
2024/01/10 05:59:59;;;;;;;15.30;8.20;;;-2.90;99.90;;;-3.28;70.57;101607.03;4826571;28;25268;-65
2024/01/10 06:02:21;;;;;;;18.15;9.50;;;-2.90;99.90;;;-3.22;70.42;101604.50;4832567;28;24476;-66
2024/01/10 06:04:43;;;;;;;19.48;9.90;;;-2.80;99.90;;;-3.24;70.18;101602.78;4811755;28;24971;-66
2024/01/10 06:07:05;;;;;;;18.65;9.05;;;-2.80;99.90;;;-3.27;70.68;101608.72;4817771;28;24451;-66
2024/01/10 06:09:27;;;;;;;17.02;9.23;;;-2.90;99.90;;;-3.24;70.33;101608.72;4836622;28;24433;-64
2024/01/10 06:11:49;;;;;;;16.08;8.35;;;-2.90;99.90;;;-3.20;70.00;101607.03;4827569;28;24841;-67
2024/01/10 06:14:11;;;;;;;18.50;9.77;;;-2.80;99.90;;;-3.24;70.53;101607.88;4807720;28;25042;-64
2024/01/10 06:16:33;;;;;;;19.65;9.13;;;-2.80;99.90;;;-3.25;70.47;101614.69;4832402;28;24978;-64
2024/01/10 06:18:55;;;;;;;16.60;8.75;;;-2.80;99.90;;;-3.20;70.08;101622.34;4809583;28;24477;-66
2024/01/10 06:21:17;;;;;;;20.45;9.23;;;-2.80;99.90;;;-3.19;70.64;101617.22;4813014;28;24520;-65
2024/01/10 06:23:39;;;;;;;17.17;9.45;;;-2.80;99.90;;;-3.13;69.92;101613.81;4830139;28;24440;-65
2024/01/10 06:26:01;;;;;;;15.68;9.15;;;-2.70;99.90;;;-3.14;69.68;101619.78;4825448;28;24506;-65
2024/01/10 06:28:23;;;;;;;19.03;10.50;;;-2.70;99.90;;;-3.32;69.78;101618.09;4828584;28;24519;-66
2024/01/10 06:30:45;;;;;;;17.98;9.25;;;-2.80;99.90;;;-3.35;69.69;101622.34;4832122;28;25000;-62
2024/01/10 06:33:07;;;;;;;19.05;10.55;;;-2.90;99.90;;;-3.43;70.62;101619.78;4829749;28;24826;-65
2024/01/10 06:35:29;;;;;;;20.67;11.13;;;-2.90;99.90;;;-3.40;70.90;101616.38;4833015;28;24521;-65
2024/01/10 06:37:51;;;;;;;17.02;9.13;;;-3.00;99.90;;;-3.39;70.25;101624.06;4818305;28;24434;-65
2024/01/10 06:40:14;;;;;;;21.17;11.40;;;-3.00;99.90;;;-3.38;70.59;101615.53;4809232;28;20808;-64
2024/01/10 06:42:37;;;;;;;17.17;7.68;;;-3.00;99.90;;;-3.32;70.63;101615.53;4826819;28;24481;-66
2024/01/10 06:44:59;;;;;;;18.77;9.18;;;-2.90;99.90;;;-3.27;71.25;101628.28;4830762;28;24436;-66
2024/01/10 06:47:21;;;;;;;19.60;8.80;;;-2.90;99.90;;;-3.22;70.71;101622.34;4813617;28;24562;-66
2024/01/10 06:49:43;;;;;;;18.27;9.80;;;-2.90;99.90;;;-3.19;70.47;101618.94;4838478;28;24527;-66
2024/01/10 06:52:07;;;;;;;19.35;10.45;;;-2.80;99.90;;;-3.27;70.11;101603.63;4833065;28;24532;-66
2024/01/10 06:54:29;;;;;;;19.92;9.70;;;-2.80;99.90;;;-3.26;70.38;101619.81;4831108;28;24460;-66
2024/01/10 06:56:51;;;;;;;16.73;8.20;;;-2.90;99.90;;;-3.26;70.49;101620.63;4816163;28;24646;-65
2024/01/10 06:59:13;;;;;;;17.08;8.02;;;-2.90;99.90;;;-3.21;69.99;101626.59;4831323;28;25016;-65
2024/01/10 07:01:35;;;;;;;19.13;10.90;;;-2.80;99.90;;;-3.13;70.35;101626.56;4815957;28;24962;-64
2024/01/10 07:03:57;;;;;;;21.95;8.95;;;-2.80;99.90;;;-3.12;69.46;101625.75;4838573;28;24550;-65
2024/01/10 07:06:19;;;;;;;16.55;8.25;;;-2.70;99.90;;;-3.11;69.18;101634.25;4832848;28;24460;-65
2024/01/10 07:08:42;;;;;;;16.13;7.70;;;-2.70;99.90;;;-3.10;69.64;101630.84;4830787;28;25011;-66
2024/01/10 07:11:04;;;;;;;19.27;9.82;;;-2.70;99.90;;;-3.04;69.97;101633.38;4816221;28;24452;-63
2024/01/10 07:13:26;;;;;;;20.48;9.80;;;-2.70;99.90;;;-3.06;69.83;101638.50;4834955;28;24452;-65
2024/01/10 07:15:50;;;;;;;18.00;9.60;;;-2.60;99.90;;;-3.06;69.22;101633.38;4836406;28;24522;-64
2024/01/10 07:18:12;;;;;;;21.88;9.30;;;-2.60;99.90;;;-3.03;69.38;101638.50;4797323;28;24456;-65
2024/01/10 07:20:34;;;;;;;16.30;9.10;;;-2.60;99.90;;;-2.99;69.00;101644.44;4836348;28;24486;-66
2024/01/10 07:22:57;;;;;;;19.10;8.53;;;-2.60;99.90;;;-3.00;68.44;101647.88;4835090;28;24979;-63
2024/01/10 07:25:19;;;;;;;18.67;9.82;;;-2.60;99.90;;;-2.95;69.02;101647.00;4821857;28;24487;-65
2024/01/10 07:27:41;;;;;;;17.75;8.95;;;-2.60;99.90;;;-2.89;69.05;101656.34;4837553;28;24431;-66
2024/01/10 07:30:13;;;;;;;15.35;7.70;;;-2.50;99.90;;;-2.84;68.91;101657.22;4820835;28;24460;-67
2024/01/10 07:32:36;;;;;;;18.27;9.63;;;-2.50;99.90;;;-2.87;68.63;101654.66;4832767;28;24506;-67
2024/01/10 07:34:58;;;;;;;17.75;9.90;;;-2.50;99.90;;;-2.88;68.90;101652.97;4833390;28;24483;-66
2024/01/10 07:37:20;;;;;;;20.75;9.60;;;-2.50;99.90;;;-2.87;68.83;101654.66;4822793;28;24500;-66
2024/01/10 07:39:43;;;;;;;18.33;9.35;;;-2.50;99.90;;;-2.83;68.63;101661.47;4816804;28;24544;-66
2024/01/10 07:42:05;;;;;;;17.42;8.73;;;-2.50;99.90;;;-2.78;68.85;101660.59;4830743;28;24516;-66
2024/01/10 07:44:27;;;;;;;19.02;8.75;;;-2.50;99.90;;;-2.73;68.84;101661.47;4819492;28;24480;-67
2024/01/10 07:46:50;;;;;;;17.07;8.90;;;-2.40;99.90;;;-2.72;68.97;101667.41;4836183;28;24431;-64
2024/01/10 07:49:12;;;;;;;18.83;9.27;;;-2.40;99.90;;;-2.72;68.02;101665.69;4827050;28;24539;-64
2024/01/10 07:51:34;;;;;;;21.30;10.35;;;-2.30;99.90;;;-2.72;68.02;101664.84;4829420;28;24437;-65
2024/01/10 07:53:57;;;;;;;20.85;10.63;;;-2.30;99.90;;;-2.76;68.65;101674.22;4824803;28;24460;-65
2024/01/10 07:56:21;;;;;;;19.38;10.68;;;-2.40;99.90;;;-2.72;67.82;101675.91;4824659;28;24432;-65
2024/01/10 07:58:43;;;;;;;18.90;9.93;;;-2.30;99.90;;;-2.67;68.20;101674.22;4817882;28;24479;-65
2024/01/10 08:01:05;;;;;;;19.02;9.68;;;-2.30;99.90;;;-2.59;67.51;101671.63;4816713;28;24430;-64
2024/01/10 08:03:27;;;;;;;18.90;10.18;;;-2.30;99.90;;;-2.59;67.48;101676.75;4826900;28;25048;-65
2024/01/10 08:05:49;;;;;;;18.73;9.77;;;-2.30;99.90;;;-2.56;67.82;101679.31;4819609;28;21517;-65
2024/01/10 08:08:13;;;;;;;18.95;9.48;;;-2.20;99.90;;;-2.54;68.23;101670.78;4815327;28;24457;-65
2024/01/10 08:10:35;;;;;;;19.05;10.10;;;-2.20;99.90;;;-2.47;67.39;101675.00;4834901;28;24883;-64
2024/01/10 08:12:59;;;;;;;18.65;9.68;;;-2.20;99.90;;;-2.43;67.73;101674.16;4809349;28;24507;-66
2024/01/10 08:15:21;;;;;;;19.38;10.10;;;-2.10;99.90;;;-2.43;67.79;101676.72;4814737;28;24504;-66
2024/01/10 08:17:45;;;;;;;19.75;9.90;;;-2.10;99.90;;;-2.38;68.00;101682.66;4815177;28;24445;-65
2024/01/10 08:20:08;;;;;;;16.52;9.90;;;-2.10;99.90;;;-2.34;67.06;101678.38;4814270;28;24448;-66
2024/01/10 08:22:30;;;;;;;16.73;9.33;;;-2.00;99.90;;;-2.29;66.64;101674.13;4817828;28;24515;-65
2024/01/10 08:24:52;;;;;;;17.40;8.85;;;-2.00;99.90;;;-2.23;66.94;101681.78;4822743;28;24473;-64
2024/01/10 08:27:16;;;;;;;19.52;10.38;;;-1.90;99.90;;;-2.18;66.44;101685.19;4807297;28;24914;-65
2024/01/10 08:29:39;;;;;;;19.55;10.02;;;-1.90;99.90;;;-2.12;66.39;101686.84;4818710;28;24487;-64
2024/01/10 08:32:01;;;;;;;16.30;9.20;;;-1.80;99.90;;;-2.10;66.73;101688.56;4801858;28;25022;-64
2024/01/10 08:34:26;;;;;;;16.67;9.32;;;-1.80;99.90;;;-2.04;66.18;101690.22;4821015;28;24842;-65
2024/01/10 08:36:51;;;;;;;21.85;10.60;;;-1.80;99.90;;;-2.02;65.79;101691.91;4835159;28;24527;-65
2024/01/10 08:39:14;;;;;;;16.80;9.15;;;-1.70;99.90;;;-1.97;65.00;101687.66;4818326;28;24527;-65
2024/01/10 08:41:37;;;;;;;17.40;8.37;;;-1.70;99.90;;;-1.97;65.07;101692.75;4822190;28;24444;-64
2024/01/10 08:43:59;;;;;;;20.40;9.98;;;-1.70;99.90;;;-1.90;65.01;101685.91;4817461;28;24424;-64
2024/01/10 08:46:22;;;;;;;15.77;9.10;;;-1.60;99.90;;;-1.79;64.78;101686.72;4809819;28;25032;-65
2024/01/10 08:48:44;;;;;;;16.52;9.32;;;-1.50;99.90;;;-1.75;64.73;101689.25;4789646;28;25208;-65
2024/01/10 08:51:06;;;;;;;18.02;9.18;;;-1.50;99.90;;;-1.77;64.91;101688.41;4806904;28;24429;-64
2024/01/10 08:53:31;;;;;;;18.23;8.75;;;-1.50;99.90;;;-1.69;64.42;101696.91;4829880;28;24866;-65
2024/01/10 08:55:53;;;;;;;17.42;9.65;;;-1.50;99.90;;;-1.59;64.39;101690.00;4814921;28;24527;-65
2024/01/10 08:58:15;;;;;;;17.88;10.10;;;-1.40;99.90;;;-1.49;64.37;101683.97;4796446;28;24435;-65
2024/01/10 09:00:37;;;;;;;18.00;9.20;;;-1.30;99.90;;;-1.48;63.92;101684.81;4808678;28;24429;-65
2024/01/10 09:02:59;;;;;;;20.40;10.80;;;-1.20;99.90;;;-1.44;63.63;101687.38;4825324;28;24431;-64
2024/01/10 09:05:21;;;;;;;18.02;9.57;;;-1.20;99.90;;;-1.45;63.55;101688.25;4792568;28;24473;-65
2024/01/10 09:07:43;;;;;;;17.92;9.30;;;-1.20;99.90;;;-1.33;64.31;101682.19;4816323;28;24433;-64
2024/01/10 09:10:07;;;;;;;19.92;10.23;;;-1.10;99.90;;;-1.24;63.32;101687.25;4818934;28;24515;-64
2024/01/10 09:12:29;;;;;;;19.88;10.00;;;-1.00;99.90;;;-1.19;63.17;101695.75;4793571;28;24454;-65
2024/01/10 09:14:52;;;;;;;19.45;10.20;;;-1.00;99.90;;;-1.15;63.56;101693.13;4815660;28;24440;-65
2024/01/10 09:17:14;;;;;;;18.90;10.13;;;-0.90;99.90;;;-1.20;63.01;101700.00;4835580;28;24432;-65
2024/01/10 09:19:35;;;;;;;18.42;10.07;;;-0.90;99.90;;;-1.25;63.32;101694.06;4826588;28;24555;-65
2024/01/10 09:21:57;;;;;;;16.63;9.10;;;-1.00;99.90;;;-1.12;62.93;101700.81;4835196;28;24425;-64
2024/01/10 09:24:19;;;;;;;16.58;9.88;;;-0.90;99.90;;;-1.01;62.88;101699.03;4812753;28;24445;-65
2024/01/10 09:26:50;;;;;;;16.33;9.90;;;-0.80;99.90;;;-0.77;62.28;101700.53;4822509;28;24907;-64
2024/01/10 09:29:12;;;;;;;20.33;10.27;;;-0.70;99.90;;;-0.59;61.93;101690.09;4833958;28;24516;-65
2024/01/10 09:31:34;;;;;;;16.80;8.35;;;-0.50;99.90;;;-0.38;61.98;101700.13;4832796;28;24480;-65
2024/01/10 09:33:56;;;;;;;18.20;9.73;;;-0.30;99.90;;;-0.11;60.48;101699.81;4807730;28;24551;-65
2024/01/10 09:36:18;;;;;;;16.92;9.05;;;-0.10;99.90;;;0.22;60.26;101705.44;4811221;28;24829;-64
2024/01/10 09:38:40;;;;;;;17.10;9.25;;;0.20;99.90;;;0.56;58.51;101704.13;4815127;28;24492;-65
2024/01/10 09:41:03;;;;;;;16.97;9.37;;;0.40;99.90;;;0.83;57.90;101701.16;4815663;28;24524;-66
2024/01/10 09:43:25;;;;;;;17.38;8.73;;;0.70;99.90;;;1.00;57.17;101701.72;4823029;28;24444;-65
2024/01/10 09:45:49;;;;;;;15.77;8.60;;;0.90;99.90;;;0.95;56.16;101702.69;4813032;28;24548;-65